sensor_id;sensor_type;location;lat;lon;timestamp;temperature;humidity
2409;DHT22;8463;48.094;7.970;2023-05-10T00:00:16;13.90;33.40
2409;DHT22;8463;48.094;7.970;2023-05-10T00:02:41;14.00;34.00
2409;DHT22;8463;48.094;7.970;2023-05-10T00:05:10;14.00;34.50
2409;DHT22;8463;48.094;7.970;2023-05-10T00:07:35;14.00;33.20
2409;DHT22;8463;48.094;7.970;2023-05-10T00:10:02;14.00;34.80
2409;DHT22;8463;48.094;7.970;2023-05-10T00:12:28;14.00;35.50
2409;DHT22;8463;48.094;7.970;2023-05-10T00:14:53;14.00;37.50
2409;DHT22;8463;48.094;7.970;2023-05-10T00:17:19;14.00;37.50
2409;DHT22;8463;48.094;7.970;2023-05-10T00:19:44;14.00;37.50
2409;DHT22;8463;48.094;7.970;2023-05-10T00:22:10;13.90;38.90
2409;DHT22;8463;48.094;7.970;2023-05-10T00:24:38;13.90;37.40
2409;DHT22;8463;48.094;7.970;2023-05-10T00:27:03;13.90;37.40
2409;DHT22;8463;48.094;7.970;2023-05-10T00:29:29;13.90;34.50
2409;DHT22;8463;48.094;7.970;2023-05-10T00:31:55;13.80;34.60
2409;DHT22;8463;48.094;7.970;2023-05-10T00:34:20;13.90;37.40
2409;DHT22;8463;48.094;7.970;2023-05-10T00:36:46;13.80;37.30
2409;DHT22;8463;48.094;7.970;2023-05-10T00:39:11;13.90;36.90
2409;DHT22;8463;48.094;7.970;2023-05-10T00:41:37;13.80;37.30
2409;DHT22;8463;48.094;7.970;2023-05-10T00:44:06;13.80;36.50
2409;DHT22;8463;48.094;7.970;2023-05-10T00:46:32;13.80;36.00
2409;DHT22;8463;48.094;7.970;2023-05-10T00:48:58;13.80;37.00
2409;DHT22;8463;48.094;7.970;2023-05-10T00:51:24;13.80;37.30
2409;DHT22;8463;48.094;7.970;2023-05-10T00:53:51;13.80;37.40
2409;DHT22;8463;48.094;7.970;2023-05-10T00:56:17;13.90;39.30
2409;DHT22;8463;48.094;7.970;2023-05-10T00:58:43;13.80;38.80
2409;DHT22;8463;48.094;7.970;2023-05-10T01:01:09;13.80;41.10
2409;DHT22;8463;48.094;7.970;2023-05-10T01:03:36;13.80;41.40
2409;DHT22;8463;48.094;7.970;2023-05-10T01:06:02;13.80;41.40
2409;DHT22;8463;48.094;7.970;2023-05-10T01:08:28;13.90;42.20
2409;DHT22;8463;48.094;7.970;2023-05-10T01:10:54;13.80;41.00
2409;DHT22;8463;48.094;7.970;2023-05-10T01:13:33;13.90;42.80
2409;DHT22;8463;48.094;7.970;2023-05-10T01:16:00;13.90;39.10
2409;DHT22;8463;48.094;7.970;2023-05-10T01:18:29;13.80;37.30
2409;DHT22;8463;48.094;7.970;2023-05-10T01:23:59;13.60;37.20
2409;DHT22;8463;48.094;7.970;2023-05-10T01:26:59;13.60;38.00
2409;DHT22;8463;48.094;7.970;2023-05-10T01:35:14;13.60;39.70
2409;DHT22;8463;48.094;7.970;2023-05-10T01:41:09;13.60;41.90
2409;DHT22;8463;48.094;7.970;2023-05-10T01:46:31;13.60;42.60
2409;DHT22;8463;48.094;7.970;2023-05-10T01:49:00;13.60;42.50
2409;DHT22;8463;48.094;7.970;2023-05-10T01:51:36;13.60;42.00
2409;DHT22;8463;48.094;7.970;2023-05-10T01:54:03;13.60;41.90
2409;DHT22;8463;48.094;7.970;2023-05-10T01:56:32;13.60;40.30
2409;DHT22;8463;48.094;7.970;2023-05-10T01:59:00;13.60;37.70
2409;DHT22;8463;48.094;7.970;2023-05-10T02:01:31;13.60;37.10
2409;DHT22;8463;48.094;7.970;2023-05-10T02:03:59;13.60;37.10
2409;DHT22;8463;48.094;7.970;2023-05-10T02:06:29;13.60;37.20
2409;DHT22;8463;48.094;7.970;2023-05-10T02:08:57;13.60;38.30
2409;DHT22;8463;48.094;7.970;2023-05-10T02:11:23;13.70;39.70
2409;DHT22;8463;48.094;7.970;2023-05-10T02:13:50;13.80;40.60
2409;DHT22;8463;48.094;7.970;2023-05-10T02:16:23;13.80;38.60
2409;DHT22;8463;48.094;7.970;2023-05-10T02:18:50;13.80;40.00
2409;DHT22;8463;48.094;7.970;2023-05-10T02:21:18;13.80;40.10
2409;DHT22;8463;48.094;7.970;2023-05-10T02:23:51;13.80;39.40
2409;DHT22;8463;48.094;7.970;2023-05-10T02:26:18;13.80;39.60
2409;DHT22;8463;48.094;7.970;2023-05-10T02:28:50;13.80;39.80
2409;DHT22;8463;48.094;7.970;2023-05-10T02:31:17;13.80;39.30
2409;DHT22;8463;48.094;7.970;2023-05-10T02:33:50;13.80;40.10
2409;DHT22;8463;48.094;7.970;2023-05-10T02:36:16;13.80;39.60
2409;DHT22;8463;48.094;7.970;2023-05-10T02:38:43;13.80;40.40
2409;DHT22;8463;48.094;7.970;2023-05-10T02:41:10;13.70;38.50
2409;DHT22;8463;48.094;7.970;2023-05-10T02:43:38;13.70;40.20
2409;DHT22;8463;48.094;7.970;2023-05-10T02:46:05;13.60;40.80
2409;DHT22;8463;48.094;7.970;2023-05-10T02:48:32;13.60;41.20
2409;DHT22;8463;48.094;7.970;2023-05-10T02:51:03;13.60;36.40
2409;DHT22;8463;48.094;7.970;2023-05-10T02:53:35;13.60;37.20
2409;DHT22;8463;48.094;7.970;2023-05-10T02:56:05;13.60;37.20
2409;DHT22;8463;48.094;7.970;2023-05-10T02:58:32;13.60;35.30
2409;DHT22;8463;48.094;7.970;2023-05-10T03:01:00;13.60;37.10
2409;DHT22;8463;48.094;7.970;2023-05-10T03:03:33;13.60;37.20
2409;DHT22;8463;48.094;7.970;2023-05-10T03:05:58;13.60;37.10
2409;DHT22;8463;48.094;7.970;2023-05-10T03:08:24;13.50;36.10
2409;DHT22;8463;48.094;7.970;2023-05-10T03:13:43;13.50;36.40
2409;DHT22;8463;48.094;7.970;2023-05-10T03:16:16;13.50;35.90
2409;DHT22;8463;48.094;7.970;2023-05-10T03:21:50;13.60;37.00
2409;DHT22;8463;48.094;7.970;2023-05-10T03:24:20;13.60;37.10
2409;DHT22;8463;48.094;7.970;2023-05-10T03:26:52;13.60;34.70
2409;DHT22;8463;48.094;7.970;2023-05-10T03:29:20;13.60;33.90
2409;DHT22;8463;48.094;7.970;2023-05-10T03:31:47;13.50;34.00
2409;DHT22;8463;48.094;7.970;2023-05-10T03:34:12;13.50;34.10
2409;DHT22;8463;48.094;7.970;2023-05-10T03:36:39;13.50;34.30
2409;DHT22;8463;48.094;7.970;2023-05-10T03:39:04;13.50;33.80
2409;DHT22;8463;48.094;7.970;2023-05-10T03:41:30;13.50;32.90
2409;DHT22;8463;48.094;7.970;2023-05-10T03:43:56;13.50;31.30
2409;DHT22;8463;48.094;7.970;2023-05-10T03:46:21;13.50;31.90
2409;DHT22;8463;48.094;7.970;2023-05-10T03:48:47;13.50;33.00
2409;DHT22;8463;48.094;7.970;2023-05-10T03:51:12;13.60;35.40
2409;DHT22;8463;48.094;7.970;2023-05-10T03:53:38;13.60;35.60
2409;DHT22;8463;48.094;7.970;2023-05-10T03:56:04;13.60;37.10
2409;DHT22;8463;48.094;7.970;2023-05-10T03:58:30;13.60;35.20
2409;DHT22;8463;48.094;7.970;2023-05-10T04:00:55;13.60;36.40
2409;DHT22;8463;48.094;7.970;2023-05-10T04:03:27;13.60;36.40
2409;DHT22;8463;48.094;7.970;2023-05-10T04:06:05;13.60;35.60
2409;DHT22;8463;48.094;7.970;2023-05-10T04:08:33;13.60;36.30
2409;DHT22;8463;48.094;7.970;2023-05-10T04:11:11;13.60;37.20
2409;DHT22;8463;48.094;7.970;2023-05-10T04:13:37;13.70;37.20
2409;DHT22;8463;48.094;7.970;2023-05-10T04:16:03;13.70;37.20
2409;DHT22;8463;48.094;7.970;2023-05-10T04:18:35;13.60;34.20
2409;DHT22;8463;48.094;7.970;2023-05-10T04:21:01;13.50;35.10
2409;DHT22;8463;48.094;7.970;2023-05-10T04:23:27;13.60;37.10
2409;DHT22;8463;48.094;7.970;2023-05-10T04:25:58;13.50;33.80
2409;DHT22;8463;48.094;7.970;2023-05-10T04:28:24;13.60;35.50
2409;DHT22;8463;48.094;7.970;2023-05-10T04:30:49;13.80;39.40
2409;DHT22;8463;48.094;7.970;2023-05-10T04:33:15;13.70;34.80
2409;DHT22;8463;48.094;7.970;2023-05-10T04:35:43;13.70;34.40
2409;DHT22;8463;48.094;7.970;2023-05-10T04:38:10;13.80;35.00
2409;DHT22;8463;48.094;7.970;2023-05-10T04:40:37;13.80;34.50
2409;DHT22;8463;48.094;7.970;2023-05-10T04:43:02;13.80;34.60
2409;DHT22;8463;48.094;7.970;2023-05-10T04:45:28;14.10;44.10
2409;DHT22;8463;48.094;7.970;2023-05-10T04:47:54;14.40;45.90
2409;DHT22;8463;48.094;7.970;2023-05-10T04:50:19;14.30;30.80
2409;DHT22;8463;48.094;7.970;2023-05-10T04:52:45;14.00;28.60
2409;DHT22;8463;48.094;7.970;2023-05-10T04:55:11;13.90;28.90
2409;DHT22;8463;48.094;7.970;2023-05-10T04:57:44;13.70;33.40
2409;DHT22;8463;48.094;7.970;2023-05-10T05:00:13;13.50;37.00
2409;DHT22;8463;48.094;7.970;2023-05-10T05:02:42;13.50;38.90
2409;DHT22;8463;48.094;7.970;2023-05-10T05:05:09;13.40;40.00
2409;DHT22;8463;48.094;7.970;2023-05-10T05:07:35;13.40;40.20
2409;DHT22;8463;48.094;7.970;2023-05-10T05:10:01;13.40;40.10
2409;DHT22;8463;48.094;7.970;2023-05-10T05:12:32;13.30;40.20
2409;DHT22;8463;48.094;7.970;2023-05-10T05:14:58;13.30;40.30
2409;DHT22;8463;48.094;7.970;2023-05-10T05:17:24;13.30;32.70
2409;DHT22;8463;48.094;7.970;2023-05-10T05:19:55;13.30;33.30
2409;DHT22;8463;48.094;7.970;2023-05-10T05:22:21;13.30;33.60
2409;DHT22;8463;48.094;7.970;2023-05-10T05:24:56;13.40;35.20
2409;DHT22;8463;48.094;7.970;2023-05-10T05:27:24;13.40;35.60
2409;DHT22;8463;48.094;7.970;2023-05-10T05:30:01;13.40;36.90
2409;DHT22;8463;48.094;7.970;2023-05-10T05:32:29;13.40;34.50
2409;DHT22;8463;48.094;7.970;2023-05-10T05:34:55;13.30;34.40
2409;DHT22;8463;48.094;7.970;2023-05-10T05:37:25;13.40;31.00
2409;DHT22;8463;48.094;7.970;2023-05-10T05:39:50;13.40;31.30
2409;DHT22;8463;48.094;7.970;2023-05-10T05:42:16;13.40;32.60
2409;DHT22;8463;48.094;7.970;2023-05-10T05:44:44;13.40;33.00
2409;DHT22;8463;48.094;7.970;2023-05-10T05:47:10;13.40;30.00
2409;DHT22;8463;48.094;7.970;2023-05-10T05:49:36;13.30;30.10
2409;DHT22;8463;48.094;7.970;2023-05-10T05:52:04;13.30;30.60
2409;DHT22;8463;48.094;7.970;2023-05-10T05:54:30;13.30;32.20
2409;DHT22;8463;48.094;7.970;2023-05-10T05:56:57;13.20;30.60
2409;DHT22;8463;48.094;7.970;2023-05-10T05:59:23;13.10;32.90
2409;DHT22;8463;48.094;7.970;2023-05-10T06:01:49;13.10;33.10
2409;DHT22;8463;48.094;7.970;2023-05-10T06:04:15;13.10;34.10
2409;DHT22;8463;48.094;7.970;2023-05-10T06:06:41;13.10;34.80
2409;DHT22;8463;48.094;7.970;2023-05-10T06:09:10;13.10;36.60
2409;DHT22;8463;48.094;7.970;2023-05-10T06:11:36;13.00;40.70
2409;DHT22;8463;48.094;7.970;2023-05-10T06:14:02;12.90;42.10
2409;DHT22;8463;48.094;7.970;2023-05-10T06:16:39;12.80;43.20
2409;DHT22;8463;48.094;7.970;2023-05-10T06:19:06;12.70;43.80
2409;DHT22;8463;48.094;7.970;2023-05-10T06:21:31;12.70;44.90
2409;DHT22;8463;48.094;7.970;2023-05-10T06:23:57;12.70;45.40
2409;DHT22;8463;48.094;7.970;2023-05-10T06:26:23;12.80;45.00
2409;DHT22;8463;48.094;7.970;2023-05-10T06:28:48;12.80;45.90
2409;DHT22;8463;48.094;7.970;2023-05-10T06:31:14;12.80;45.80
2409;DHT22;8463;48.094;7.970;2023-05-10T06:33:40;12.70;43.70
2409;DHT22;8463;48.094;7.970;2023-05-10T06:36:06;12.70;45.00
2409;DHT22;8463;48.094;7.970;2023-05-10T06:38:33;12.70;44.90
2409;DHT22;8463;48.094;7.970;2023-05-10T06:40:59;12.70;44.90
2409;DHT22;8463;48.094;7.970;2023-05-10T06:43:25;12.70;44.50
2409;DHT22;8463;48.094;7.970;2023-05-10T06:45:51;12.80;45.00
2409;DHT22;8463;48.094;7.970;2023-05-10T06:48:18;12.80;45.10
2409;DHT22;8463;48.094;7.970;2023-05-10T06:50:44;12.80;43.10
2409;DHT22;8463;48.094;7.970;2023-05-10T06:53:10;12.80;41.30
2409;DHT22;8463;48.094;7.970;2023-05-10T06:55:37;12.70;40.80
2409;DHT22;8463;48.094;7.970;2023-05-10T06:58:03;12.70;40.60
2409;DHT22;8463;48.094;7.970;2023-05-10T07:02:55;12.60;43.40
2409;DHT22;8463;48.094;7.970;2023-05-10T07:05:21;12.60;41.90
2409;DHT22;8463;48.094;7.970;2023-05-10T07:07:47;12.70;43.00
2409;DHT22;8463;48.094;7.970;2023-05-10T07:10:12;12.70;42.40
2409;DHT22;8463;48.094;7.970;2023-05-10T07:12:38;12.70;42.90
2409;DHT22;8463;48.094;7.970;2023-05-10T07:15:05;12.70;43.40
2409;DHT22;8463;48.094;7.970;2023-05-10T07:17:30;12.70;40.10
2409;DHT22;8463;48.094;7.970;2023-05-10T07:19:58;12.70;40.90
2409;DHT22;8463;48.094;7.970;2023-05-10T07:22:25;12.80;41.20
2409;DHT22;8463;48.094;7.970;2023-05-10T07:24:51;12.90;40.60
2409;DHT22;8463;48.094;7.970;2023-05-10T07:27:16;12.90;41.10
2409;DHT22;8463;48.094;7.970;2023-05-10T07:29:42;13.00;42.70
2409;DHT22;8463;48.094;7.970;2023-05-10T07:34:34;13.10;41.70
2409;DHT22;8463;48.094;7.970;2023-05-10T07:37:00;13.10;42.10
2409;DHT22;8463;48.094;7.970;2023-05-10T07:39:29;13.10;41.80
2409;DHT22;8463;48.094;7.970;2023-05-10T07:41:55;13.10;42.10
2409;DHT22;8463;48.094;7.970;2023-05-10T07:44:21;13.20;43.30
2409;DHT22;8463;48.094;7.970;2023-05-10T07:46:47;13.10;43.00
2409;DHT22;8463;48.094;7.970;2023-05-10T07:49:14;13.20;37.10
2409;DHT22;8463;48.094;7.970;2023-05-10T07:51:40;13.20;37.10
2409;DHT22;8463;48.094;7.970;2023-05-10T07:54:06;13.30;38.20
2409;DHT22;8463;48.094;7.970;2023-05-10T07:56:32;13.40;35.70
2409;DHT22;8463;48.094;7.970;2023-05-10T07:58:59;13.40;31.70
2409;DHT22;8463;48.094;7.970;2023-05-10T08:01:25;13.40;32.50
2409;DHT22;8463;48.094;7.970;2023-05-10T08:03:51;13.50;30.70
2409;DHT22;8463;48.094;7.970;2023-05-10T08:06:19;13.50;29.80
2409;DHT22;8463;48.094;7.970;2023-05-10T08:08:48;13.60;32.80
2409;DHT22;8463;48.094;7.970;2023-05-10T08:11:17;13.60;31.30
2409;DHT22;8463;48.094;7.970;2023-05-10T08:13:43;13.60;25.50
2409;DHT22;8463;48.094;7.970;2023-05-10T08:16:09;13.60;25.70
2409;DHT22;8463;48.094;7.970;2023-05-10T08:18:35;13.50;20.30
2409;DHT22;8463;48.094;7.970;2023-05-10T08:21:00;13.50;21.80
2409;DHT22;8463;48.094;7.970;2023-05-10T08:23:26;13.50;25.40
2409;DHT22;8463;48.094;7.970;2023-05-10T08:25:51;13.50;26.20
2409;DHT22;8463;48.094;7.970;2023-05-10T08:28:17;13.50;27.80
2409;DHT22;8463;48.094;7.970;2023-05-10T08:30:43;13.60;22.70
2409;DHT22;8463;48.094;7.970;2023-05-10T08:33:08;13.60;24.60
2409;DHT22;8463;48.094;7.970;2023-05-10T08:35:34;13.60;23.60
2409;DHT22;8463;48.094;7.970;2023-05-10T08:38:00;13.60;23.80
2409;DHT22;8463;48.094;7.970;2023-05-10T08:40:28;13.60;23.10
2409;DHT22;8463;48.094;7.970;2023-05-10T08:43:16;13.70;20.90
2409;DHT22;8463;48.094;7.970;2023-05-10T08:45:43;13.70;20.30
2409;DHT22;8463;48.094;7.970;2023-05-10T08:48:12;13.70;21.90
2409;DHT22;8463;48.094;7.970;2023-05-10T08:50:41;13.80;18.90
2409;DHT22;8463;48.094;7.970;2023-05-10T08:53:11;13.80;19.80
2409;DHT22;8463;48.094;7.970;2023-05-10T08:55:38;13.80;19.40
2409;DHT22;8463;48.094;7.970;2023-05-10T08:58:07;13.80;22.30
2409;DHT22;8463;48.094;7.970;2023-05-10T09:00:34;13.80;23.90
2409;DHT22;8463;48.094;7.970;2023-05-10T09:03:00;13.90;21.90
2409;DHT22;8463;48.094;7.970;2023-05-10T09:05:26;13.90;21.60
2409;DHT22;8463;48.094;7.970;2023-05-10T09:07:52;13.90;21.00
2409;DHT22;8463;48.094;7.970;2023-05-10T09:10:19;14.20;23.10
2409;DHT22;8463;48.094;7.970;2023-05-10T09:12:45;14.20;19.30
2409;DHT22;8463;48.094;7.970;2023-05-10T09:15:15;14.20;21.30
2409;DHT22;8463;48.094;7.970;2023-05-10T09:17:41;14.20;23.70
2409;DHT22;8463;48.094;7.970;2023-05-10T09:20:07;13.90;1.00
2409;DHT22;8463;48.094;7.970;2023-05-10T09:22:34;13.30;1.40
2409;DHT22;8463;48.094;7.970;2023-05-10T09:25:07;13.20;3.40
2409;DHT22;8463;48.094;7.970;2023-05-10T09:27:34;13.10;1.00
2409;DHT22;8463;48.094;7.970;2023-05-10T09:30:00;12.70;7.50
2409;DHT22;8463;48.094;7.970;2023-05-10T09:32:47;12.30;11.40
2409;DHT22;8463;48.094;7.970;2023-05-10T09:35:18;12.00;16.00
2409;DHT22;8463;48.094;7.970;2023-05-10T09:37:48;11.80;20.10
2409;DHT22;8463;48.094;7.970;2023-05-10T09:40:18;11.80;20.70
2409;DHT22;8463;48.094;7.970;2023-05-10T09:42:52;11.90;26.20
2409;DHT22;8463;48.094;7.970;2023-05-10T09:45:19;11.70;23.20
2409;DHT22;8463;48.094;7.970;2023-05-10T09:47:45;11.70;28.40
2409;DHT22;8463;48.094;7.970;2023-05-10T09:50:11;11.50;31.40
2409;DHT22;8463;48.094;7.970;2023-05-10T09:55:16;11.80;34.10
2409;DHT22;8463;48.094;7.970;2023-05-10T09:57:41;11.80;30.30
2409;DHT22;8463;48.094;7.970;2023-05-10T10:00:08;11.90;31.00
2409;DHT22;8463;48.094;7.970;2023-05-10T10:02:39;12.00;28.00
2409;DHT22;8463;48.094;7.970;2023-05-10T10:05:06;12.20;29.70
2409;DHT22;8463;48.094;7.970;2023-05-10T10:07:33;12.50;31.80
2409;DHT22;8463;48.094;7.970;2023-05-10T10:09:59;12.60;31.50
2409;DHT22;8463;48.094;7.970;2023-05-10T10:12:25;12.80;28.10
2409;DHT22;8463;48.094;7.970;2023-05-10T10:14:52;12.70;21.90
2409;DHT22;8463;48.094;7.970;2023-05-10T10:17:21;12.80;26.30
2409;DHT22;8463;48.094;7.970;2023-05-10T10:19:48;12.80;24.00
2409;DHT22;8463;48.094;7.970;2023-05-10T10:22:14;12.90;26.30
2409;DHT22;8463;48.094;7.970;2023-05-10T10:24:40;13.10;29.60
2409;DHT22;8463;48.094;7.970;2023-05-10T10:27:24;13.40;30.60
2409;DHT22;8463;48.094;7.970;2023-05-10T10:30:06;13.70;29.80
2409;DHT22;8463;48.094;7.970;2023-05-10T10:35:37;14.60;24.10
2409;DHT22;8463;48.094;7.970;2023-05-10T10:38:04;14.70;15.20
2409;DHT22;8463;48.094;7.970;2023-05-10T10:40:31;14.70;15.70
2409;DHT22;8463;48.094;7.970;2023-05-10T10:42:58;15.10;19.20
2409;DHT22;8463;48.094;7.970;2023-05-10T10:45:24;15.20;10.60
2409;DHT22;8463;48.094;7.970;2023-05-10T10:48:25;15.40;12.30
2409;DHT22;8463;48.094;7.970;2023-05-10T10:50:57;15.60;13.20
2409;DHT22;8463;48.094;7.970;2023-05-10T10:53:27;15.60;8.40
2409;DHT22;8463;48.094;7.970;2023-05-10T10:58:38;15.90;1.00
2409;DHT22;8463;48.094;7.970;2023-05-10T11:01:33;15.90;1.00
2409;DHT22;8463;48.094;7.970;2023-05-10T11:06:32;16.40;4.80
2409;DHT22;8463;48.094;7.970;2023-05-10T11:08:59;16.50;1.00
2409;DHT22;8463;48.094;7.970;2023-05-10T11:11:26;16.50;1.00
2409;DHT22;8463;48.094;7.970;2023-05-10T11:13:51;16.30;1.00
2409;DHT22;8463;48.094;7.970;2023-05-10T11:16:18;16.10;1.00
2409;DHT22;8463;48.094;7.970;2023-05-10T11:19:07;16.10;1.00
2409;DHT22;8463;48.094;7.970;2023-05-10T11:21:33;16.00;1.00
2409;DHT22;8463;48.094;7.970;2023-05-10T11:24:01;16.00;1.00
2409;DHT22;8463;48.094;7.970;2023-05-10T11:26:34;16.10;1.00
2409;DHT22;8463;48.094;7.970;2023-05-10T11:29:01;16.20;1.00
2409;DHT22;8463;48.094;7.970;2023-05-10T11:31:28;16.20;1.00
2409;DHT22;8463;48.094;7.970;2023-05-10T11:33:56;16.50;1.00
2409;DHT22;8463;48.094;7.970;2023-05-10T11:38:51;17.20;1.00
2409;DHT22;8463;48.094;7.970;2023-05-10T11:41:20;17.30;1.00
2409;DHT22;8463;48.094;7.970;2023-05-10T11:43:52;17.30;1.00
2409;DHT22;8463;48.094;7.970;2023-05-10T11:46:20;17.20;1.00
2409;DHT22;8463;48.094;7.970;2023-05-10T11:48:51;17.10;1.00
2409;DHT22;8463;48.094;7.970;2023-05-10T11:51:20;17.00;1.00
2409;DHT22;8463;48.094;7.970;2023-05-10T11:53:50;16.90;1.00
2409;DHT22;8463;48.094;7.970;2023-05-10T11:56:16;17.00;1.00
2409;DHT22;8463;48.094;7.970;2023-05-10T11:58:42;17.10;1.00
2409;DHT22;8463;48.094;7.970;2023-05-10T12:01:08;17.20;1.00
2409;DHT22;8463;48.094;7.970;2023-05-10T12:03:38;17.10;1.00
2409;DHT22;8463;48.094;7.970;2023-05-10T12:06:07;17.00;1.00
2409;DHT22;8463;48.094;7.970;2023-05-10T12:08:32;17.10;1.00
2409;DHT22;8463;48.094;7.970;2023-05-10T12:11:09;16.90;1.00
2409;DHT22;8463;48.094;7.970;2023-05-10T12:13:39;16.90;1.00
2409;DHT22;8463;48.094;7.970;2023-05-10T12:16:16;16.70;1.00
2409;DHT22;8463;48.094;7.970;2023-05-10T12:18:42;16.40;1.00
2409;DHT22;8463;48.094;7.970;2023-05-10T12:21:14;16.40;1.00
2409;DHT22;8463;48.094;7.970;2023-05-10T12:23:41;16.40;1.00
2409;DHT22;8463;48.094;7.970;2023-05-10T12:26:13;16.30;1.00
2409;DHT22;8463;48.094;7.970;2023-05-10T12:28:42;16.10;1.00
2409;DHT22;8463;48.094;7.970;2023-05-10T12:31:10;16.10;1.00
2409;DHT22;8463;48.094;7.970;2023-05-10T12:33:42;16.00;1.00
2409;DHT22;8463;48.094;7.970;2023-05-10T12:36:16;15.90;1.00
2409;DHT22;8463;48.094;7.970;2023-05-10T12:38:44;15.90;1.00
2409;DHT22;8463;48.094;7.970;2023-05-10T12:41:12;15.80;1.00
2409;DHT22;8463;48.094;7.970;2023-05-10T12:43:39;15.60;1.00
2409;DHT22;8463;48.094;7.970;2023-05-10T12:46:11;15.60;1.00
2409;DHT22;8463;48.094;7.970;2023-05-10T12:48:43;15.60;1.00
2409;DHT22;8463;48.094;7.970;2023-05-10T12:51:10;15.50;1.00
2409;DHT22;8463;48.094;7.970;2023-05-10T12:53:42;15.50;1.00
2409;DHT22;8463;48.094;7.970;2023-05-10T12:56:08;15.50;1.00
2409;DHT22;8463;48.094;7.970;2023-05-10T12:58:38;15.50;1.00
2409;DHT22;8463;48.094;7.970;2023-05-10T13:01:04;15.60;1.00
2409;DHT22;8463;48.094;7.970;2023-05-10T13:03:30;15.40;1.00
2409;DHT22;8463;48.094;7.970;2023-05-10T13:05:56;15.20;1.00
2409;DHT22;8463;48.094;7.970;2023-05-10T13:08:22;14.90;1.00
2409;DHT22;8463;48.094;7.970;2023-05-10T13:10:48;14.70;1.00
2409;DHT22;8463;48.094;7.970;2023-05-10T13:13:14;14.50;1.00
2409;DHT22;8463;48.094;7.970;2023-05-10T13:15:39;14.50;1.00
2409;DHT22;8463;48.094;7.970;2023-05-10T13:18:05;14.50;1.00
2409;DHT22;8463;48.094;7.970;2023-05-10T13:20:31;14.40;1.00
2409;DHT22;8463;48.094;7.970;2023-05-10T13:22:56;14.20;1.00
2409;DHT22;8463;48.094;7.970;2023-05-10T13:25:22;14.40;1.00
2409;DHT22;8463;48.094;7.970;2023-05-10T13:27:47;14.80;1.00
2409;DHT22;8463;48.094;7.970;2023-05-10T13:30:13;15.10;1.00
2409;DHT22;8463;48.094;7.970;2023-05-10T13:32:39;15.20;1.00
2409;DHT22;8463;48.094;7.970;2023-05-10T13:35:06;15.10;1.00
2409;DHT22;8463;48.094;7.970;2023-05-10T13:37:32;15.10;1.00
2409;DHT22;8463;48.094;7.970;2023-05-10T13:40:06;15.00;1.00
2409;DHT22;8463;48.094;7.970;2023-05-10T13:42:32;15.00;1.00
2409;DHT22;8463;48.094;7.970;2023-05-10T13:44:59;14.80;1.00
2409;DHT22;8463;48.094;7.970;2023-05-10T13:47:26;15.00;1.00
2409;DHT22;8463;48.094;7.970;2023-05-10T13:49:55;15.00;1.00
2409;DHT22;8463;48.094;7.970;2023-05-10T13:52:21;14.90;1.00
2409;DHT22;8463;48.094;7.970;2023-05-10T13:54:47;14.80;1.00
2409;DHT22;8463;48.094;7.970;2023-05-10T13:57:12;15.00;1.00
2409;DHT22;8463;48.094;7.970;2023-05-10T13:59:39;15.10;1.00
2409;DHT22;8463;48.094;7.970;2023-05-10T14:02:05;15.30;1.00
2409;DHT22;8463;48.094;7.970;2023-05-10T14:04:32;15.40;1.00
2409;DHT22;8463;48.094;7.970;2023-05-10T14:07:00;15.50;1.00
2409;DHT22;8463;48.094;7.970;2023-05-10T14:09:26;15.50;1.00
2409;DHT22;8463;48.094;7.970;2023-05-10T14:11:53;15.40;1.00
2409;DHT22;8463;48.094;7.970;2023-05-10T14:14:18;15.50;1.00
2409;DHT22;8463;48.094;7.970;2023-05-10T14:16:44;15.50;1.00
2409;DHT22;8463;48.094;7.970;2023-05-10T14:19:11;15.50;1.00
2409;DHT22;8463;48.094;7.970;2023-05-10T14:21:37;15.40;1.00
2409;DHT22;8463;48.094;7.970;2023-05-10T14:24:02;15.40;1.00
2409;DHT22;8463;48.094;7.970;2023-05-10T14:26:28;15.40;1.00
2409;DHT22;8463;48.094;7.970;2023-05-10T14:28:54;15.40;1.00
2409;DHT22;8463;48.094;7.970;2023-05-10T14:31:26;15.40;1.00
2409;DHT22;8463;48.094;7.970;2023-05-10T14:33:52;15.60;1.00
2409;DHT22;8463;48.094;7.970;2023-05-10T14:36:19;15.50;1.00
2409;DHT22;8463;48.094;7.970;2023-05-10T14:38:45;15.40;1.00
2409;DHT22;8463;48.094;7.970;2023-05-10T14:41:11;15.70;1.00
2409;DHT22;8463;48.094;7.970;2023-05-10T14:43:40;15.70;1.00
2409;DHT22;8463;48.094;7.970;2023-05-10T14:46:06;15.90;1.00
2409;DHT22;8463;48.094;7.970;2023-05-10T14:48:32;16.10;1.00
2409;DHT22;8463;48.094;7.970;2023-05-10T14:50:57;16.10;1.00
2409;DHT22;8463;48.094;7.970;2023-05-10T14:53:23;16.10;1.00
2409;DHT22;8463;48.094;7.970;2023-05-10T14:55:49;16.10;1.00
2409;DHT22;8463;48.094;7.970;2023-05-10T14:58:14;16.20;1.00
2409;DHT22;8463;48.094;7.970;2023-05-10T15:00:44;16.20;1.00
2409;DHT22;8463;48.094;7.970;2023-05-10T15:03:09;16.10;1.00
2409;DHT22;8463;48.094;7.970;2023-05-10T15:05:35;16.10;1.00
2409;DHT22;8463;48.094;7.970;2023-05-10T15:08:03;16.20;1.00
2409;DHT22;8463;48.094;7.970;2023-05-10T15:10:28;16.30;1.00
2409;DHT22;8463;48.094;7.970;2023-05-10T15:12:56;16.50;1.00
2409;DHT22;8463;48.094;7.970;2023-05-10T15:15:24;16.60;1.00
2409;DHT22;8463;48.094;7.970;2023-05-10T15:17:50;16.80;1.00
2409;DHT22;8463;48.094;7.970;2023-05-10T15:20:16;16.80;1.00
2409;DHT22;8463;48.094;7.970;2023-05-10T15:22:44;17.00;1.00
2409;DHT22;8463;48.094;7.970;2023-05-10T15:25:13;16.90;1.00
2409;DHT22;8463;48.094;7.970;2023-05-10T15:27:40;16.70;1.00
2409;DHT22;8463;48.094;7.970;2023-05-10T15:30:06;16.70;1.00
2409;DHT22;8463;48.094;7.970;2023-05-10T15:32:32;16.40;1.00
2409;DHT22;8463;48.094;7.970;2023-05-10T15:35:01;16.40;1.00
2409;DHT22;8463;48.094;7.970;2023-05-10T15:37:27;16.40;1.00
2409;DHT22;8463;48.094;7.970;2023-05-10T15:39:56;16.40;1.00
2409;DHT22;8463;48.094;7.970;2023-05-10T15:42:28;16.30;1.00
2409;DHT22;8463;48.094;7.970;2023-05-10T15:44:55;16.20;1.00
2409;DHT22;8463;48.094;7.970;2023-05-10T15:47:20;16.20;1.00
2409;DHT22;8463;48.094;7.970;2023-05-10T15:49:46;16.20;1.00
2409;DHT22;8463;48.094;7.970;2023-05-10T15:52:12;16.10;1.00
2409;DHT22;8463;48.094;7.970;2023-05-10T15:54:38;16.20;1.00
2409;DHT22;8463;48.094;7.970;2023-05-10T15:57:06;16.40;1.00
2409;DHT22;8463;48.094;7.970;2023-05-10T15:59:32;16.60;1.00
2409;DHT22;8463;48.094;7.970;2023-05-10T16:02:00;16.70;1.00
2409;DHT22;8463;48.094;7.970;2023-05-10T16:04:28;16.70;1.00
2409;DHT22;8463;48.094;7.970;2023-05-10T16:06:56;16.60;1.00
2409;DHT22;8463;48.094;7.970;2023-05-10T16:09:22;16.30;1.00
2409;DHT22;8463;48.094;7.970;2023-05-10T16:11:48;16.00;1.00
2409;DHT22;8463;48.094;7.970;2023-05-10T16:14:13;15.90;1.00
2409;DHT22;8463;48.094;7.970;2023-05-10T16:16:46;15.80;1.00
2409;DHT22;8463;48.094;7.970;2023-05-10T16:19:17;15.80;1.00
2409;DHT22;8463;48.094;7.970;2023-05-10T16:21:49;15.80;1.00
2409;DHT22;8463;48.094;7.970;2023-05-10T16:24:14;15.70;1.00
2409;DHT22;8463;48.094;7.970;2023-05-10T16:26:43;15.60;1.00
2409;DHT22;8463;48.094;7.970;2023-05-10T16:29:11;15.60;1.00
2409;DHT22;8463;48.094;7.970;2023-05-10T16:31:36;15.60;1.00
2409;DHT22;8463;48.094;7.970;2023-05-10T16:34:02;15.40;1.00
2409;DHT22;8463;48.094;7.970;2023-05-10T16:36:28;15.30;1.00
2409;DHT22;8463;48.094;7.970;2023-05-10T16:38:56;15.20;1.00
2409;DHT22;8463;48.094;7.970;2023-05-10T16:41:23;15.00;1.00
2409;DHT22;8463;48.094;7.970;2023-05-10T16:43:48;14.80;1.00
2409;DHT22;8463;48.094;7.970;2023-05-10T16:46:14;14.60;1.00
2409;DHT22;8463;48.094;7.970;2023-05-10T16:48:40;14.20;1.00